Time,TemperatureF,DewpointF,PressureIn,WindDirection,WindDirectionDegrees,WindSpeedMPH,WindSpeedGustMPH,Humidity,HourlyPrecipIn,Conditions,Clouds,dailyrainin,SolarRadiationWatts/m^2,SoftwareType,DateUTC
2013-01-31 00:22:00,31.0,23.0,-100.00,West,269,12.0,31.0,72,0.00,,,0.80,0.000000,,2013-01-31 05:22:00,
2013-01-31 00:32:00,31.0,23.0,-100.00,West,269,12.0,31.0,72,0.00,,,0.80,0.000000,,2013-01-31 05:32:00,
2013-01-31 00:42:00,31.0,23.0,-100.00,West,269,12.0,31.0,72,0.00,,,0.80,0.000000,,2013-01-31 05:42:00,
2013-01-31 00:52:00,31.0,23.0,-100.00,West,269,12.0,31.0,72,0.00,,,0.80,0.000000,,2013-01-31 05:52:00,
2013-01-31 09:22:00,25.0,12.0,-100.00,West,268,9.0,22.0,57,0.00,,,-99.99,10.000000,,2013-01-31 14:22:00,
2013-01-31 09:32:00,25.0,12.0,-100.00,West,268,9.0,22.0,57,0.00,,,-99.99,10.000000,,2013-01-31 14:32:00,
2013-01-31 09:42:00,25.0,12.0,-100.00,West,268,9.0,22.0,57,0.00,,,-99.99,10.000000,,2013-01-31 14:42:00,
2013-01-31 09:52:00,25.0,12.0,-100.00,West,268,9.0,22.0,57,0.00,,,-99.99,10.000000,,2013-01-31 14:52:00,
2013-01-31 10:23:00,25.0,12.0,-100.00,West,269,9.0,19.0,57,0.00,,,0.15,36.000000,,2013-01-31 15:23:00,
2013-01-31 10:32:00,25.0,12.0,-100.00,West,269,9.0,19.0,57,0.00,,,0.15,36.000000,,2013-01-31 15:32:00,
2013-01-31 10:42:00,25.0,12.0,-100.00,West,269,9.0,19.0,57,0.00,,,0.15,36.000000,,2013-01-31 15:42:00,
2013-01-31 10:52:00,25.0,12.0,-100.00,West,269,9.0,19.0,57,0.00,,,0.15,36.000000,,2013-01-31 15:52:00,
2013-01-31 11:22:00,25.0,10.0,-100.00,WSW,257,7.0,17.0,53,0.00,,,0.15,61.000000,,2013-01-31 16:22:00,
2013-01-31 11:33:00,25.0,10.0,-100.00,WSW,257,7.0,17.0,53,0.00,,,0.15,61.000000,,2013-01-31 16:33:00,
2013-01-31 11:42:00,25.0,10.0,-100.00,WSW,257,7.0,17.0,53,0.00,,,0.15,61.000000,,2013-01-31 16:42:00,
2013-01-31 11:52:00,25.0,10.0,-100.00,WSW,257,7.0,17.0,53,0.00,,,0.15,61.000000,,2013-01-31 16:52:00,
2013-01-31 12:23:00,26.0,17.0,-100.00,WSW,256,7.0,24.0,67,0.00,,,0.15,177.000000,,2013-01-31 17:23:00,
2013-01-31 12:32:00,26.0,17.0,-100.00,WSW,256,7.0,24.0,67,0.00,,,0.15,177.000000,,2013-01-31 17:32:00,
2013-01-31 12:44:00,26.0,17.0,-100.00,WSW,256,7.0,24.0,67,0.00,,,0.15,177.000000,,2013-01-31 17:44:00,
2013-01-31 12:53:00,26.0,17.0,-100.00,WSW,256,7.0,24.0,67,0.00,,,0.15,177.000000,,2013-01-31 17:53:00,
2013-01-31 13:22:00,28.0,18.0,-100.00,WSW,241,8.0,16.0,66,0.00,,,0.15,168.000000,,2013-01-31 18:22:00,
2013-01-31 13:32:00,28.0,18.0,-100.00,WSW,241,8.0,16.0,66,0.00,,,0.15,168.000000,,2013-01-31 18:32:00,
2013-01-31 13:43:00,28.0,18.0,-100.00,WSW,241,8.0,16.0,66,0.00,,,0.15,168.000000,,2013-01-31 18:43:00,
2013-01-31 13:52:00,28.0,18.0,-100.00,WSW,241,8.0,16.0,66,0.00,,,0.15,168.000000,,2013-01-31 18:52:00,
2013-01-31 14:22:00,30.0,21.0,-100.00,WSW,253,9.0,18.0,68,0.00,,,0.15,202.000000,,2013-01-31 19:22:00,
2013-01-31 14:33:00,30.0,21.0,-100.00,WSW,253,9.0,18.0,68,0.00,,,0.15,202.000000,,2013-01-31 19:33:00,
2013-01-31 14:42:00,30.0,21.0,-100.00,WSW,253,9.0,18.0,68,0.00,,,0.15,202.000000,,2013-01-31 19:42:00,
2013-01-31 14:52:00,30.0,21.0,-100.00,WSW,253,9.0,18.0,68,0.00,,,0.15,202.000000,,2013-01-31 19:52:00,
2013-01-31 15:22:00,29.0,21.0,-100.00,WSW,242,8.0,21.0,73,0.00,,,0.15,131.000000,,2013-01-31 20:22:00,
2013-01-31 15:32:00,29.0,21.0,-100.00,WSW,242,8.0,21.0,73,0.00,,,0.15,131.000000,,2013-01-31 20:32:00,
2013-01-31 15:42:00,29.0,21.0,-100.00,WSW,242,8.0,21.0,73,0.00,,,0.15,131.000000,,2013-01-31 20:42:00,
2013-01-31 15:52:00,29.0,21.0,-100.00,WSW,242,8.0,21.0,73,0.00,,,0.15,131.000000,,2013-01-31 20:52:00,
2013-01-31 16:22:00,31.0,17.0,-100.00,WSW,239,8.0,21.0,56,0.00,,,0.15,157.000000,,2013-01-31 21:22:00,
2013-01-31 16:32:00,31.0,17.0,-100.00,WSW,239,8.0,21.0,56,0.00,,,0.15,157.000000,,2013-01-31 21:32:00,
2013-01-31 16:42:00,31.0,17.0,-100.00,WSW,239,8.0,21.0,56,0.00,,,0.15,157.000000,,2013-01-31 21:42:00,
2013-01-31 16:52:00,31.0,17.0,-100.00,WSW,239,8.0,21.0,56,0.00,,,0.15,157.000000,,2013-01-31 21:52:00,
2013-01-31 17:22:00,30.0,15.0,-100.00,WSW,254,6.0,17.0,54,0.00,,,0.15,46.000000,,2013-01-31 22:22:00,
2013-01-31 17:33:00,30.0,15.0,-100.00,WSW,254,6.0,17.0,54,0.00,,,0.15,46.000000,,2013-01-31 22:33:00,
2013-01-31 17:42:00,30.0,15.0,-100.00,WSW,254,6.0,17.0,54,0.00,,,0.15,46.000000,,2013-01-31 22:42:00,
2013-01-31 17:52:00,30.0,15.0,-100.00,WSW,254,6.0,17.0,54,0.00,,,0.15,46.000000,,2013-01-31 22:52:00,
2013-01-31 18:22:00,29.0,16.0,-100.00,WSW,251,6.0,16.0,59,0.00,,,0.15,21.000000,,2013-01-31 23:22:00,
2013-01-31 18:32:00,29.0,16.0,-100.00,WSW,251,6.0,16.0,59,0.00,,,0.15,21.000000,,2013-01-31 23:32:00,
2013-01-31 18:42:00,29.0,16.0,-100.00,WSW,251,6.0,16.0,59,0.00,,,0.15,21.000000,,2013-01-31 23:42:00,
2013-01-31 18:52:00,29.0,16.0,-100.00,WSW,251,6.0,16.0,59,0.00,,,0.15,21.000000,,2013-01-31 23:52:00,
2013-01-31 19:22:00,29.0,20.0,-100.00,West,261,7.0,16.0,68,0.00,,,0.04,0.000000,,2013-02-01 00:22:00,
2013-01-31 19:32:00,29.0,20.0,-100.00,West,261,7.0,16.0,68,0.00,,,0.04,0.000000,,2013-02-01 00:32:00,
2013-01-31 19:42:00,29.0,20.0,-100.00,West,261,7.0,16.0,68,0.00,,,0.04,0.000000,,2013-02-01 00:42:00,
2013-01-31 19:51:00,29.0,20.0,-100.00,West,261,7.0,16.0,68,0.00,,,0.04,0.000000,,2013-02-01 00:51:00,
2013-01-31 20:22:00,27.0,24.0,-100.00,WSW,241,5.0,16.0,88,0.00,,,0.00,0.000000,,2013-02-01 01:22:00,
2013-01-31 20:32:00,27.0,24.0,-100.00,WSW,241,5.0,16.0,88,0.00,,,0.00,0.000000,,2013-02-01 01:32:00,
2013-01-31 20:42:00,27.0,24.0,-100.00,WSW,241,5.0,16.0,88,0.00,,,0.00,0.000000,,2013-02-01 01:42:00,
2013-01-31 20:52:00,27.0,24.0,-100.00,WSW,241,5.0,16.0,88,0.00,,,0.00,0.000000,,2013-02-01 01:52:00,
2013-01-31 21:22:00,26.0,24.0,-100.00,WSW,249,5.0,11.0,92,0.00,,,0.00,0.000000,,2013-02-01 02:22:00,
2013-01-31 21:32:00,26.0,24.0,-100.00,WSW,249,5.0,11.0,92,0.00,,,0.00,0.000000,,2013-02-01 02:32:00,
2013-01-31 21:42:00,26.0,24.0,-100.00,WSW,249,5.0,11.0,92,0.00,,,0.00,0.000000,,2013-02-01 02:42:00,
2013-01-31 21:52:00,26.0,24.0,-100.00,WSW,249,5.0,11.0,92,0.00,,,0.00,0.000000,,2013-02-01 02:52:00,
2013-01-31 22:12:00,22.0,20.0,-100.00,NW,309,9.0,24.0,92,0.00,,,0.00,0.000000,,2013-02-01 03:12:00,
2013-01-31 22:22:00,22.0,20.0,-100.00,NW,309,9.0,24.0,92,0.00,,,0.00,0.000000,,2013-02-01 03:22:00,
2013-01-31 22:33:00,22.0,20.0,-100.00,NW,309,9.0,24.0,92,0.00,,,0.00,0.000000,,2013-02-01 03:33:00,
2013-01-31 22:42:00,22.0,20.0,-100.00,NW,309,9.0,24.0,92,0.00,,,0.00,0.000000,,2013-02-01 03:42:00,
2013-01-31 22:51:00,22.0,20.0,-100.00,NW,309,9.0,24.0,92,0.00,,,0.00,0.000000,,2013-02-01 03:51:00,
2013-01-31 23:22:00,19.0,15.0,-100.00,WNW,295,9.0,24.0,83,0.00,,,0.00,0.000000,,2013-02-01 04:22:00,
2013-01-31 23:32:00,19.0,15.0,-100.00,WNW,295,9.0,24.0,83,0.00,,,0.00,0.000000,,2013-02-01 04:32:00,
2013-01-31 23:42:00,19.0,15.0,-100.00,WNW,295,9.0,24.0,83,0.00,,,0.00,0.000000,,2013-02-01 04:42:00,
2013-01-31 23:52:00,19.0,15.0,-100.00,WNW,295,9.0,24.0,83,0.00,,,0.00,0.000000,,2013-02-01 04:52:00,